sensor_id;sensor_type;location;lat;lon;timestamp;pressure;altitude;pressure_sealevel;temperature
20848;BMP180;10584;50.854;12.902;2023-07-20T00:01:56;97770.00;;;16.00
20848;BMP180;10584;50.854;12.902;2023-07-20T00:07:17;97767.00;;;16.00
20848;BMP180;10584;50.854;12.902;2023-07-20T00:12:38;97757.00;;;16.00
20848;BMP180;10584;50.854;12.902;2023-07-20T00:18:00;97751.00;;;16.00
20848;BMP180;10584;50.854;12.902;2023-07-20T00:23:22;97754.00;;;16.10
20848;BMP180;10584;50.854;12.902;2023-07-20T00:28:44;97753.00;;;16.00
20848;BMP180;10584;50.854;12.902;2023-07-20T00:34:06;97757.00;;;16.00
20848;BMP180;10584;50.854;12.902;2023-07-20T00:39:28;97747.00;;;16.00
20848;BMP180;10584;50.854;12.902;2023-07-20T00:44:49;97745.00;;;16.00
20848;BMP180;10584;50.854;12.902;2023-07-20T00:50:11;97753.00;;;16.00
20848;BMP180;10584;50.854;12.902;2023-07-20T00:55:33;97752.00;;;16.00
20848;BMP180;10584;50.854;12.902;2023-07-20T01:00:55;97754.00;;;15.90
20848;BMP180;10584;50.854;12.902;2023-07-20T01:06:39;97750.00;;;15.90
20848;BMP180;10584;50.854;12.902;2023-07-20T01:12:32;97748.00;;;15.80
20848;BMP180;10584;50.854;12.902;2023-07-20T01:17:50;97749.00;;;15.70
20848;BMP180;10584;50.854;12.902;2023-07-20T01:23:23;97747.00;;;15.70
20848;BMP180;10584;50.854;12.902;2023-07-20T01:34:19;97738.00;;;15.60
20848;BMP180;10584;50.854;12.902;2023-07-20T01:39:41;97738.00;;;15.60
20848;BMP180;10584;50.854;12.902;2023-07-20T01:45:03;97738.00;;;15.50
20848;BMP180;10584;50.854;12.902;2023-07-20T01:50:25;97739.00;;;15.40
20848;BMP180;10584;50.854;12.902;2023-07-20T01:55:46;97733.00;;;15.40
20848;BMP180;10584;50.854;12.902;2023-07-20T02:01:08;97735.00;;;15.30
20848;BMP180;10584;50.854;12.902;2023-07-20T02:06:29;97732.00;;;15.20
20848;BMP180;10584;50.854;12.902;2023-07-20T02:11:51;97738.00;;;15.20
20848;BMP180;10584;50.854;12.902;2023-07-20T02:17:14;97736.00;;;15.10
20848;BMP180;10584;50.854;12.902;2023-07-20T02:22:36;97744.00;;;15.10
20848;BMP180;10584;50.854;12.902;2023-07-20T02:27:58;97745.00;;;15.00
20848;BMP180;10584;50.854;12.902;2023-07-20T02:33:20;97749.00;;;15.00
20848;BMP180;10584;50.854;12.902;2023-07-20T02:38:42;97746.00;;;14.90
20848;BMP180;10584;50.854;12.902;2023-07-20T02:44:04;97749.00;;;14.90
20848;BMP180;10584;50.854;12.902;2023-07-20T02:49:25;97753.00;;;14.90
20848;BMP180;10584;50.854;12.902;2023-07-20T02:54:47;97754.00;;;14.90
20848;BMP180;10584;50.854;12.902;2023-07-20T03:00:09;97752.00;;;14.90
20848;BMP180;10584;50.854;12.902;2023-07-20T03:05:31;97765.00;;;14.80
20848;BMP180;10584;50.854;12.902;2023-07-20T03:11:09;97762.00;;;14.70
20848;BMP180;10584;50.854;12.902;2023-07-20T03:17:03;97776.00;;;14.70
20848;BMP180;10584;50.854;12.902;2023-07-20T03:22:48;97778.00;;;14.70
20848;BMP180;10584;50.854;12.902;2023-07-20T03:28:20;97773.00;;;14.60
20848;BMP180;10584;50.854;12.902;2023-07-20T03:33:58;97778.00;;;14.60
20848;BMP180;10584;50.854;12.902;2023-07-20T03:39:25;97782.00;;;14.60
20848;BMP180;10584;50.854;12.902;2023-07-20T03:44:48;97789.00;;;14.60
20848;BMP180;10584;50.854;12.902;2023-07-20T03:50:09;97785.00;;;14.60
20848;BMP180;10584;50.854;12.902;2023-07-20T03:55:31;97789.00;;;14.70
20848;BMP180;10584;50.854;12.902;2023-07-20T04:00:53;97781.00;;;14.70
20848;BMP180;10584;50.854;12.902;2023-07-20T04:06:18;97787.00;;;14.80
20848;BMP180;10584;50.854;12.902;2023-07-20T04:12:02;97783.00;;;14.80
20848;BMP180;10584;50.854;12.902;2023-07-20T04:17:30;97783.00;;;14.80
20848;BMP180;10584;50.854;12.902;2023-07-20T04:23:14;97780.00;;;14.90
20848;BMP180;10584;50.854;12.902;2023-07-20T04:28:56;97784.00;;;14.90
20848;BMP180;10584;50.854;12.902;2023-07-20T04:34:29;97782.00;;;14.90
20848;BMP180;10584;50.854;12.902;2023-07-20T04:39:51;97790.00;;;15.00
20848;BMP180;10584;50.854;12.902;2023-07-20T04:45:12;97787.00;;;15.00
20848;BMP180;10584;50.854;12.902;2023-07-20T04:50:34;97791.00;;;15.00
20848;BMP180;10584;50.854;12.902;2023-07-20T04:55:58;97785.00;;;15.00
20848;BMP180;10584;50.854;12.902;2023-07-20T05:01:54;97795.00;;;15.10
20848;BMP180;10584;50.854;12.902;2023-07-20T05:07:34;97804.00;;;15.10
20848;BMP180;10584;50.854;12.902;2023-07-20T05:12:55;97807.00;;;15.10
20848;BMP180;10584;50.854;12.902;2023-07-20T05:18:27;97810.00;;;15.20
20848;BMP180;10584;50.854;12.902;2023-07-20T05:23:58;97815.00;;;15.10
20848;BMP180;10584;50.854;12.902;2023-07-20T05:29:26;97825.00;;;15.20
20848;BMP180;10584;50.854;12.902;2023-07-20T05:34:55;97830.00;;;15.00
20848;BMP180;10584;50.854;12.902;2023-07-20T05:40:16;97827.00;;;14.70
20848;BMP180;10584;50.854;12.902;2023-07-20T05:45:44;97823.00;;;14.90
20848;BMP180;10584;50.854;12.902;2023-07-20T05:51:17;97827.00;;;14.80
20848;BMP180;10584;50.854;12.902;2023-07-20T05:57:11;97829.00;;;14.50
20848;BMP180;10584;50.854;12.902;2023-07-20T06:02:57;97832.00;;;14.50
20848;BMP180;10584;50.854;12.902;2023-07-20T06:08:39;97824.00;;;14.60
20848;BMP180;10584;50.854;12.902;2023-07-20T06:14:01;97825.00;;;14.70
20848;BMP180;10584;50.854;12.902;2023-07-20T06:19:29;97826.00;;;14.70
20848;BMP180;10584;50.854;12.902;2023-07-20T06:24:51;97826.00;;;14.70
20848;BMP180;10584;50.854;12.902;2023-07-20T06:30:12;97827.00;;;14.70
20848;BMP180;10584;50.854;12.902;2023-07-20T06:35:35;97835.00;;;14.70
20848;BMP180;10584;50.854;12.902;2023-07-20T06:40:59;97832.00;;;14.80
20848;BMP180;10584;50.854;12.902;2023-07-20T06:46:46;97832.00;;;14.90
20848;BMP180;10584;50.854;12.902;2023-07-20T06:52:28;97834.00;;;15.30
20848;BMP180;10584;50.854;12.902;2023-07-20T06:58:10;97841.00;;;15.40
20848;BMP180;10584;50.854;12.902;2023-07-20T07:04:05;97847.00;;;15.40
20848;BMP180;10584;50.854;12.902;2023-07-20T07:09:45;97852.00;;;15.60
20848;BMP180;10584;50.854;12.902;2023-07-20T07:15:17;97843.00;;;15.70
20848;BMP180;10584;50.854;12.902;2023-07-20T07:20:39;97844.00;;;15.90
20848;BMP180;10584;50.854;12.902;2023-07-20T07:26:07;97839.00;;;16.00
20848;BMP180;10584;50.854;12.902;2023-07-20T07:31:53;97851.00;;;16.20
20848;BMP180;10584;50.854;12.902;2023-07-20T07:37:42;97843.00;;;16.50
20848;BMP180;10584;50.854;12.902;2023-07-20T07:43:43;97852.00;;;16.70
20848;BMP180;10584;50.854;12.902;2023-07-20T07:49:21;97848.00;;;16.70
20848;BMP180;10584;50.854;12.902;2023-07-20T07:54:47;97844.00;;;16.80
20848;BMP180;10584;50.854;12.902;2023-07-20T08:00:09;97847.00;;;16.80
20848;BMP180;10584;50.854;12.902;2023-07-20T08:05:40;97841.00;;;17.20
20848;BMP180;10584;50.854;12.902;2023-07-20T08:11:23;97849.00;;;17.40
20848;BMP180;10584;50.854;12.902;2023-07-20T08:16:52;97847.00;;;17.60
20848;BMP180;10584;50.854;12.902;2023-07-20T08:22:40;97839.00;;;17.70
20848;BMP180;10584;50.854;12.902;2023-07-20T08:28:18;97847.00;;;17.70
20848;BMP180;10584;50.854;12.902;2023-07-20T08:34:03;97841.00;;;17.70
20848;BMP180;10584;50.854;12.902;2023-07-20T08:39:48;97844.00;;;17.80
20848;BMP180;10584;50.854;12.902;2023-07-20T08:45:10;97840.00;;;17.70
20848;BMP180;10584;50.854;12.902;2023-07-20T08:50:35;97844.00;;;17.80
20848;BMP180;10584;50.854;12.902;2023-07-20T08:56:01;97844.00;;;18.40
20848;BMP180;10584;50.854;12.902;2023-07-20T09:02:01;97848.00;;;18.40
20848;BMP180;10584;50.854;12.902;2023-07-20T09:07:42;97852.00;;;18.50
20848;BMP180;10584;50.854;12.902;2023-07-20T09:13:08;97846.00;;;18.60
20848;BMP180;10584;50.854;12.902;2023-07-20T09:18:55;97841.00;;;18.80
20848;BMP180;10584;50.854;12.902;2023-07-20T09:24:38;97841.00;;;18.90
20848;BMP180;10584;50.854;12.902;2023-07-20T09:30:00;97844.00;;;18.80
20848;BMP180;10584;50.854;12.902;2023-07-20T09:35:25;97845.00;;;18.70
20848;BMP180;10584;50.854;12.902;2023-07-20T09:41:17;97842.00;;;18.90
20848;BMP180;10584;50.854;12.902;2023-07-20T09:47:40;97850.00;;;19.00
20848;BMP180;10584;50.854;12.902;2023-07-20T09:53:48;97844.00;;;19.40
20848;BMP180;10584;50.854;12.902;2023-07-20T09:59:24;97853.00;;;19.40
20848;BMP180;10584;50.854;12.902;2023-07-20T10:05:01;97856.00;;;19.20
20848;BMP180;10584;50.854;12.902;2023-07-20T10:10:52;97849.00;;;19.50
20848;BMP180;10584;50.854;12.902;2023-07-20T10:16:40;97858.00;;;19.30
20848;BMP180;10584;50.854;12.902;2023-07-20T10:22:35;97849.00;;;19.20
20848;BMP180;10584;50.854;12.902;2023-07-20T10:28:11;97852.00;;;19.10
20848;BMP180;10584;50.854;12.902;2023-07-20T10:33:51;97851.00;;;19.20
20848;BMP180;10584;50.854;12.902;2023-07-20T10:39:27;97840.00;;;19.00
20848;BMP180;10584;50.854;12.902;2023-07-20T10:44:51;97851.00;;;19.20
20848;BMP180;10584;50.854;12.902;2023-07-20T10:50:13;97857.00;;;19.10
20848;BMP180;10584;50.854;12.902;2023-07-20T10:55:35;97854.00;;;19.60
20848;BMP180;10584;50.854;12.902;2023-07-20T11:01:04;97853.00;;;19.70
20848;BMP180;10584;50.854;12.902;2023-07-20T11:06:42;97837.00;;;19.90
20848;BMP180;10584;50.854;12.902;2023-07-20T11:12:25;97833.00;;;20.30
20848;BMP180;10584;50.854;12.902;2023-07-20T11:18:19;97821.00;;;20.50
20848;BMP180;10584;50.854;12.902;2023-07-20T11:23:59;97813.00;;;20.50
20848;BMP180;10584;50.854;12.902;2023-07-20T11:29:30;97818.00;;;20.70
20848;BMP180;10584;50.854;12.902;2023-07-20T11:34:54;97831.00;;;20.60
20848;BMP180;10584;50.854;12.902;2023-07-20T11:40:16;97829.00;;;20.60
20848;BMP180;10584;50.854;12.902;2023-07-20T11:45:38;97854.00;;;21.00
20848;BMP180;10584;50.854;12.902;2023-07-20T11:51:12;97857.00;;;21.50
20848;BMP180;10584;50.854;12.902;2023-07-20T11:57:05;97899.00;;;19.80
20848;BMP180;10584;50.854;12.902;2023-07-20T12:02:44;97896.00;;;18.30
20848;BMP180;10584;50.854;12.902;2023-07-20T12:08:20;97911.00;;;17.90
20848;BMP180;10584;50.854;12.902;2023-07-20T12:14:01;97927.00;;;17.00
20848;BMP180;10584;50.854;12.902;2023-07-20T12:19:39;97926.00;;;16.90
20848;BMP180;10584;50.854;12.902;2023-07-20T12:25:06;97932.00;;;16.70
20848;BMP180;10584;50.854;12.902;2023-07-20T12:30:29;97930.00;;;16.80
20848;BMP180;10584;50.854;12.902;2023-07-20T12:35:59;97927.00;;;16.80
20848;BMP180;10584;50.854;12.902;2023-07-20T12:41:50;97916.00;;;16.90
20848;BMP180;10584;50.854;12.902;2023-07-20T12:47:40;97921.00;;;17.10
20848;BMP180;10584;50.854;12.902;2023-07-20T12:53:23;97902.00;;;17.40
20848;BMP180;10584;50.854;12.902;2023-07-20T12:59:05;97905.00;;;17.90
20848;BMP180;10584;50.854;12.902;2023-07-20T13:04:40;97898.00;;;18.50
20848;BMP180;10584;50.854;12.902;2023-07-20T13:10:24;97903.00;;;18.90
20848;BMP180;10584;50.854;12.902;2023-07-20T13:16:28;97915.00;;;19.20
20848;BMP180;10584;50.854;12.902;2023-07-20T13:22:20;97892.00;;;19.50
20848;BMP180;10584;50.854;12.902;2023-07-20T13:28:00;97911.00;;;19.50
20848;BMP180;10584;50.854;12.902;2023-07-20T13:33:29;97913.00;;;19.60
20848;BMP180;10584;50.854;12.902;2023-07-20T13:39:01;97908.00;;;19.70
20848;BMP180;10584;50.854;12.902;2023-07-20T13:44:33;97913.00;;;20.10
20848;BMP180;10584;50.854;12.902;2023-07-20T13:49:55;97907.00;;;19.90
20848;BMP180;10584;50.854;12.902;2023-07-20T13:55:20;97910.00;;;19.80
20848;BMP180;10584;50.854;12.902;2023-07-20T14:01:01;97909.00;;;19.90
20848;BMP180;10584;50.854;12.902;2023-07-20T14:06:40;97908.00;;;20.20
20848;BMP180;10584;50.854;12.902;2023-07-20T14:12:23;97905.00;;;20.20
20848;BMP180;10584;50.854;12.902;2023-07-20T14:18:02;97907.00;;;20.00
20848;BMP180;10584;50.854;12.902;2023-07-20T14:23:30;97901.00;;;20.40
20848;BMP180;10584;50.854;12.902;2023-07-20T14:29:04;97893.00;;;20.60
20848;BMP180;10584;50.854;12.902;2023-07-20T14:34:32;97904.00;;;20.10
20848;BMP180;10584;50.854;12.902;2023-07-20T14:39:56;97903.00;;;20.00
20848;BMP180;10584;50.854;12.902;2023-07-20T14:45:17;97895.00;;;20.20
20848;BMP180;10584;50.854;12.902;2023-07-20T14:50:39;97901.00;;;19.80
20848;BMP180;10584;50.854;12.902;2023-07-20T14:56:10;97895.00;;;19.90
20848;BMP180;10584;50.854;12.902;2023-07-20T15:02:02;97894.00;;;19.80
20848;BMP180;10584;50.854;12.902;2023-07-20T15:07:36;97894.00;;;19.80
20848;BMP180;10584;50.854;12.902;2023-07-20T15:13:03;97889.00;;;20.30
20848;BMP180;10584;50.854;12.902;2023-07-20T15:18:39;97884.00;;;20.60
20848;BMP180;10584;50.854;12.902;2023-07-20T15:24:23;97888.00;;;20.60
20848;BMP180;10584;50.854;12.902;2023-07-20T15:29:49;97894.00;;;20.80
20848;BMP180;10584;50.854;12.902;2023-07-20T15:35:11;97888.00;;;20.80
20848;BMP180;10584;50.854;12.902;2023-07-20T15:40:33;97885.00;;;21.10
20848;BMP180;10584;50.854;12.902;2023-07-20T15:52:27;97881.00;;;20.90
20848;BMP180;10584;50.854;12.902;2023-07-20T15:58:11;97884.00;;;20.70
20848;BMP180;10584;50.854;12.902;2023-07-20T16:04:00;97879.00;;;20.60
20848;BMP180;10584;50.854;12.902;2023-07-20T16:09:41;97875.00;;;20.40
20848;BMP180;10584;50.854;12.902;2023-07-20T16:15:21;97875.00;;;20.60
20848;BMP180;10584;50.854;12.902;2023-07-20T16:20:46;97886.00;;;20.50
20848;BMP180;10584;50.854;12.902;2023-07-20T16:26:18;97880.00;;;20.40
20848;BMP180;10584;50.854;12.902;2023-07-20T16:31:50;97886.00;;;20.50
20848;BMP180;10584;50.854;12.902;2023-07-20T16:37:45;97871.00;;;20.10
20848;BMP180;10584;50.854;12.902;2023-07-20T16:43:34;97881.00;;;20.40
20848;BMP180;10584;50.854;12.902;2023-07-20T16:49:12;97875.00;;;20.40
20848;BMP180;10584;50.854;12.902;2023-07-20T16:54:40;97883.00;;;20.70
20848;BMP180;10584;50.854;12.902;2023-07-20T17:00:02;97878.00;;;20.70
20848;BMP180;10584;50.854;12.902;2023-07-20T17:05:28;97876.00;;;20.40
20848;BMP180;10584;50.854;12.902;2023-07-20T17:11:10;97872.00;;;20.40
20848;BMP180;10584;50.854;12.902;2023-07-20T17:17:08;97872.00;;;20.40
20848;BMP180;10584;50.854;12.902;2023-07-20T17:22:43;97864.00;;;20.60
20848;BMP180;10584;50.854;12.902;2023-07-20T17:28:21;97853.00;;;20.60
20848;BMP180;10584;50.854;12.902;2023-07-20T17:34:11;97852.00;;;20.60
20848;BMP180;10584;50.854;12.902;2023-07-20T17:39:38;97857.00;;;20.60
20848;BMP180;10584;50.854;12.902;2023-07-20T17:45:02;97851.00;;;20.50
20848;BMP180;10584;50.854;12.902;2023-07-20T17:50:24;97860.00;;;20.50
20848;BMP180;10584;50.854;12.902;2023-07-20T17:55:57;97854.00;;;20.40
20848;BMP180;10584;50.854;12.902;2023-07-20T18:01:55;97847.00;;;20.10
20848;BMP180;10584;50.854;12.902;2023-07-20T18:07:38;97844.00;;;20.00
20848;BMP180;10584;50.854;12.902;2023-07-20T18:13:10;97847.00;;;19.70
20848;BMP180;10584;50.854;12.902;2023-07-20T18:18:51;97842.00;;;19.40
20848;BMP180;10584;50.854;12.902;2023-07-20T18:24:29;97841.00;;;19.10
20848;BMP180;10584;50.854;12.902;2023-07-20T18:29:50;97846.00;;;18.80
20848;BMP180;10584;50.854;12.902;2023-07-20T18:35:12;97840.00;;;18.50
20848;BMP180;10584;50.854;12.902;2023-07-20T18:40:34;97841.00;;;18.30
20848;BMP180;10584;50.854;12.902;2023-07-20T18:45:59;97847.00;;;18.10
20848;BMP180;10584;50.854;12.902;2023-07-20T18:51:53;97853.00;;;17.80
20848;BMP180;10584;50.854;12.902;2023-07-20T18:57:44;97852.00;;;17.60
20848;BMP180;10584;50.854;12.902;2023-07-20T19:03:33;97851.00;;;17.50
20848;BMP180;10584;50.854;12.902;2023-07-20T19:09:23;97851.00;;;17.30
20848;BMP180;10584;50.854;12.902;2023-07-20T19:15:05;97864.00;;;17.20
20848;BMP180;10584;50.854;12.902;2023-07-20T19:21:03;97866.00;;;17.10
20848;BMP180;10584;50.854;12.902;2023-07-20T19:26:37;97870.00;;;16.90
20848;BMP180;10584;50.854;12.902;2023-07-20T19:32:12;97866.00;;;16.70
20848;BMP180;10584;50.854;12.902;2023-07-20T19:37:58;97878.00;;;16.50
20848;BMP180;10584;50.854;12.902;2023-07-20T19:43:24;97878.00;;;16.30
20848;BMP180;10584;50.854;12.902;2023-07-20T19:49:01;97872.00;;;16.10
20848;BMP180;10584;50.854;12.902;2023-07-20T19:54:29;97881.00;;;16.00
20848;BMP180;10584;50.854;12.902;2023-07-20T19:59:51;97877.00;;;15.70
20848;BMP180;10584;50.854;12.902;2023-07-20T20:05:22;97874.00;;;15.60
20848;BMP180;10584;50.854;12.902;2023-07-20T20:11:20;97876.00;;;15.40
20848;BMP180;10584;50.854;12.902;2023-07-20T20:16:56;97881.00;;;15.30
20848;BMP180;10584;50.854;12.902;2023-07-20T20:22:55;97878.00;;;15.20
20848;BMP180;10584;50.854;12.902;2023-07-20T20:28:36;97879.00;;;15.00
20848;BMP180;10584;50.854;12.902;2023-07-20T20:34:16;97890.00;;;14.90
20848;BMP180;10584;50.854;12.902;2023-07-20T20:39:43;97887.00;;;14.70
20848;BMP180;10584;50.854;12.902;2023-07-20T20:45:05;97878.00;;;14.60
20848;BMP180;10584;50.854;12.902;2023-07-20T20:50:30;97885.00;;;14.50
20848;BMP180;10584;50.854;12.902;2023-07-20T20:55:58;97890.00;;;14.40
20848;BMP180;10584;50.854;12.902;2023-07-20T21:01:54;97887.00;;;14.30
20848;BMP180;10584;50.854;12.902;2023-07-20T21:07:43;97886.00;;;14.20
20848;BMP180;10584;50.854;12.902;2023-07-20T21:13:18;97893.00;;;14.10
20848;BMP180;10584;50.854;12.902;2023-07-20T21:18:56;97892.00;;;14.10
20848;BMP180;10584;50.854;12.902;2023-07-20T21:24:29;97891.00;;;14.10
20848;BMP180;10584;50.854;12.902;2023-07-20T21:29:53;97880.00;;;14.00
20848;BMP180;10584;50.854;12.902;2023-07-20T21:35:15;97879.00;;;14.00
20848;BMP180;10584;50.854;12.902;2023-07-20T21:40:39;97872.00;;;14.00
20848;BMP180;10584;50.854;12.902;2023-07-20T21:46:08;97868.00;;;14.00
20848;BMP180;10584;50.854;12.902;2023-07-20T21:52:08;97875.00;;;13.90
20848;BMP180;10584;50.854;12.902;2023-07-20T21:57:46;97875.00;;;13.90
20848;BMP180;10584;50.854;12.902;2023-07-20T22:03:36;97871.00;;;13.90
20848;BMP180;10584;50.854;12.902;2023-07-20T22:09:15;97870.00;;;13.90
20848;BMP180;10584;50.854;12.902;2023-07-20T22:14:52;97869.00;;;13.80
20848;BMP180;10584;50.854;12.902;2023-07-20T22:20:21;97869.00;;;13.80
20848;BMP180;10584;50.854;12.902;2023-07-20T22:25:42;97876.00;;;13.70
20848;BMP180;10584;50.854;12.902;2023-07-20T22:31:17;97869.00;;;13.70
20848;BMP180;10584;50.854;12.902;2023-07-20T22:36:57;97867.00;;;13.70
20848;BMP180;10584;50.854;12.902;2023-07-20T22:42:45;97851.00;;;13.60
20848;BMP180;10584;50.854;12.902;2023-07-20T22:48:31;97844.00;;;13.60
20848;BMP180;10584;50.854;12.902;2023-07-20T22:54:05;97849.00;;;13.50
20848;BMP180;10584;50.854;12.902;2023-07-20T22:59:32;97843.00;;;13.50
20848;BMP180;10584;50.854;12.902;2023-07-20T23:04:56;97844.00;;;13.40
20848;BMP180;10584;50.854;12.902;2023-07-20T23:10:29;97836.00;;;13.30
20848;BMP180;10584;50.854;12.902;2023-07-20T23:15:58;97842.00;;;13.30
20848;BMP180;10584;50.854;12.902;2023-07-20T23:21:37;97837.00;;;13.20
20848;BMP180;10584;50.854;12.902;2023-07-20T23:27:07;97836.00;;;13.20
20848;BMP180;10584;50.854;12.902;2023-07-20T23:32:42;97836.00;;;13.10
20848;BMP180;10584;50.854;12.902;2023-07-20T23:38:12;97837.00;;;13.10
20848;BMP180;10584;50.854;12.902;2023-07-20T23:43:55;97828.00;;;13.00
20848;BMP180;10584;50.854;12.902;2023-07-20T23:49:24;97824.00;;;13.00
20848;BMP180;10584;50.854;12.902;2023-07-20T23:54:46;97823.00;;;12.90
